sensor_id;sensor_type;location;lat;lon;timestamp;pressure;altitude;pressure_sealevel;temperature;humidity
40838;BME280;29632;49.168;9.848;2023-05-02T00:01:39;96842.25;;;14.57;45.13
40838;BME280;29632;49.168;9.848;2023-05-02T00:04:06;96836.38;;;14.54;45.39
40838;BME280;29632;49.168;9.848;2023-05-02T00:06:31;96846.88;;;14.54;45.46
40838;BME280;29632;49.168;9.848;2023-05-02T00:08:57;96843.59;;;14.52;45.37
40838;BME280;29632;49.168;9.848;2023-05-02T00:11:23;96836.22;;;14.48;45.18
40838;BME280;29632;49.168;9.848;2023-05-02T00:13:49;96844.25;;;14.46;45.41
40838;BME280;29632;49.168;9.848;2023-05-02T00:16:14;96836.72;;;14.43;45.17
40838;BME280;29632;49.168;9.848;2023-05-02T00:18:40;96840.00;;;14.45;45.30
40838;BME280;29632;49.168;9.848;2023-05-02T00:21:06;96841.78;;;14.45;45.20
40838;BME280;29632;49.168;9.848;2023-05-02T00:23:32;96835.75;;;14.44;45.12
40838;BME280;29632;49.168;9.848;2023-05-02T00:25:58;96838.38;;;14.44;45.18
40838;BME280;29632;49.168;9.848;2023-05-02T00:28:24;96838.53;;;14.43;45.21
40838;BME280;29632;49.168;9.848;2023-05-02T00:30:51;96838.69;;;14.41;45.24
40838;BME280;29632;49.168;9.848;2023-05-02T00:33:17;96837.22;;;14.39;45.23
40838;BME280;29632;49.168;9.848;2023-05-02T00:35:43;96836.44;;;14.38;45.11
40838;BME280;29632;49.168;9.848;2023-05-02T00:38:09;96839.03;;;14.38;45.29
40838;BME280;29632;49.168;9.848;2023-05-02T00:40:45;96841.66;;;14.38;45.13
40838;BME280;29632;49.168;9.848;2023-05-02T00:43:11;96838.19;;;14.38;45.43
40838;BME280;29632;49.168;9.848;2023-05-02T00:45:37;96837.41;;;14.37;45.56
40838;BME280;29632;49.168;9.848;2023-05-02T00:48:06;96839.22;;;14.37;45.01
40838;BME280;29632;49.168;9.848;2023-05-02T00:50:34;96838.38;;;14.36;45.07
40838;BME280;29632;49.168;9.848;2023-05-02T00:53:00;96830.50;;;14.36;45.22
40838;BME280;29632;49.168;9.848;2023-05-02T00:55:28;96834.94;;;14.35;45.24
40838;BME280;29632;49.168;9.848;2023-05-02T00:57:53;96833.13;;;14.36;45.26
40838;BME280;29632;49.168;9.848;2023-05-02T01:00:19;96840.00;;;14.37;45.23
40838;BME280;29632;49.168;9.848;2023-05-02T01:02:54;96832.16;;;14.37;45.43
40838;BME280;29632;49.168;9.848;2023-05-02T01:05:27;96833.81;;;14.38;45.13
40838;BME280;29632;49.168;9.848;2023-05-02T01:08:07;96832.97;;;14.38;45.19
40838;BME280;29632;49.168;9.848;2023-05-02T01:13:11;96853.94;;;14.38;45.28
40838;BME280;29632;49.168;9.848;2023-05-02T01:15:39;96849.69;;;14.37;45.30
40838;BME280;29632;49.168;9.848;2023-05-02T01:18:08;96845.91;;;14.39;45.46
40838;BME280;29632;49.168;9.848;2023-05-02T01:20:36;96844.44;;;14.37;45.24
40838;BME280;29632;49.168;9.848;2023-05-02T01:23:10;96850.16;;;14.32;45.50
40838;BME280;29632;49.168;9.848;2023-05-02T01:26:12;96848.53;;;14.31;45.42
40838;BME280;29632;49.168;9.848;2023-05-02T01:28:54;96855.72;;;14.29;45.50
40838;BME280;29632;49.168;9.848;2023-05-02T01:31:23;96852.47;;;14.27;45.78
40838;BME280;29632;49.168;9.848;2023-05-02T01:33:49;96859.53;;;14.26;45.08
40838;BME280;29632;49.168;9.848;2023-05-02T01:36:16;96860.50;;;14.25;45.67
40838;BME280;29632;49.168;9.848;2023-05-02T01:38:42;96863.25;;;14.24;45.31
40838;BME280;29632;49.168;9.848;2023-05-02T01:41:08;96854.28;;;14.18;45.52
40838;BME280;29632;49.168;9.848;2023-05-02T01:43:35;96872.78;;;14.16;45.76
40838;BME280;29632;49.168;9.848;2023-05-02T01:46:02;96873.09;;;14.13;45.15
40838;BME280;29632;49.168;9.848;2023-05-02T01:48:29;96873.59;;;14.09;45.91
40838;BME280;29632;49.168;9.848;2023-05-02T01:50:55;96869.50;;;14.06;45.78
40838;BME280;29632;49.168;9.848;2023-05-02T01:53:23;96869.50;;;14.06;45.58
40838;BME280;29632;49.168;9.848;2023-05-02T01:55:49;96872.13;;;14.06;45.82
40838;BME280;29632;49.168;9.848;2023-05-02T01:58:15;96874.88;;;14.05;45.59
40838;BME280;29632;49.168;9.848;2023-05-02T02:00:43;96874.41;;;14.01;45.51
40838;BME280;29632;49.168;9.848;2023-05-02T02:03:09;96871.78;;;14.01;45.42
40838;BME280;29632;49.168;9.848;2023-05-02T02:05:36;96879.16;;;13.97;45.59
40838;BME280;29632;49.168;9.848;2023-05-02T02:08:04;96873.41;;;13.94;45.47
40838;BME280;29632;49.168;9.848;2023-05-02T02:10:31;96886.00;;;13.90;45.85
40838;BME280;29632;49.168;9.848;2023-05-02T02:13:05;96881.78;;;13.89;45.78
40838;BME280;29632;49.168;9.848;2023-05-02T02:15:35;96879.47;;;13.86;45.79
40838;BME280;29632;49.168;9.848;2023-05-02T02:18:29;96883.06;;;13.85;45.98
40838;BME280;29632;49.168;9.848;2023-05-02T02:20:57;96877.97;;;13.84;45.81
40838;BME280;29632;49.168;9.848;2023-05-02T02:23:25;96883.41;;;13.82;45.91
40838;BME280;29632;49.168;9.848;2023-05-02T02:25:51;96886.19;;;13.81;45.61
40838;BME280;29632;49.168;9.848;2023-05-02T02:28:18;96884.53;;;13.79;45.92
40838;BME280;29632;49.168;9.848;2023-05-02T02:30:44;96887.31;;;13.78;45.62
40838;BME280;29632;49.168;9.848;2023-05-02T02:33:10;96893.84;;;13.74;45.55
40838;BME280;29632;49.168;9.848;2023-05-02T02:35:39;96894.97;;;13.71;45.86
40838;BME280;29632;49.168;9.848;2023-05-02T02:41:00;96907.38;;;13.61;45.92
40838;BME280;29632;49.168;9.848;2023-05-02T02:46:40;96912.31;;;13.56;46.03
40838;BME280;29632;49.168;9.848;2023-05-02T02:49:21;96918.34;;;13.56;45.87
40838;BME280;29632;49.168;9.848;2023-05-02T02:54:37;96916.69;;;13.55;45.56
40838;BME280;29632;49.168;9.848;2023-05-02T02:57:23;96923.91;;;13.53;45.59
40838;BME280;29632;49.168;9.848;2023-05-02T03:00:12;96924.03;;;13.52;45.95
40838;BME280;29632;49.168;9.848;2023-05-02T03:02:38;96928.47;;;13.51;45.73
40838;BME280;29632;49.168;9.848;2023-05-02T03:05:06;96923.41;;;13.50;45.73
40838;BME280;29632;49.168;9.848;2023-05-02T03:07:33;96929.59;;;13.49;45.77
40838;BME280;29632;49.168;9.848;2023-05-02T03:10:01;96934.31;;;13.45;46.20
40838;BME280;29632;49.168;9.848;2023-05-02T03:12:27;96935.97;;;13.46;45.78
40838;BME280;29632;49.168;9.848;2023-05-02T03:14:55;96937.63;;;13.47;46.00
40838;BME280;29632;49.168;9.848;2023-05-02T03:17:25;96939.25;;;13.48;45.54
40838;BME280;29632;49.168;9.848;2023-05-02T03:19:51;96938.13;;;13.51;45.78
40838;BME280;29632;49.168;9.848;2023-05-02T03:22:16;96944.97;;;13.52;45.68
40838;BME280;29632;49.168;9.848;2023-05-02T03:24:42;96945.63;;;13.54;45.51
40838;BME280;29632;49.168;9.848;2023-05-02T03:27:07;96947.44;;;13.53;45.74
40838;BME280;29632;49.168;9.848;2023-05-02T03:29:33;96952.84;;;13.52;45.43
40838;BME280;29632;49.168;9.848;2023-05-02T03:31:59;96959.56;;;13.54;45.72
40838;BME280;29632;49.168;9.848;2023-05-02T03:34:24;96955.13;;;13.55;45.55
40838;BME280;29632;49.168;9.848;2023-05-02T03:36:50;96957.59;;;13.56;45.95
40838;BME280;29632;49.168;9.848;2023-05-02T03:39:16;96968.72;;;13.58;45.65
40838;BME280;29632;49.168;9.848;2023-05-02T03:41:41;96968.56;;;13.60;45.43
40838;BME280;29632;49.168;9.848;2023-05-02T03:44:08;96972.81;;;13.61;45.49
40838;BME280;29632;49.168;9.848;2023-05-02T03:46:33;96964.00;;;13.62;45.82
40838;BME280;29632;49.168;9.848;2023-05-02T03:48:59;96964.00;;;13.62;45.51
40838;BME280;29632;49.168;9.848;2023-05-02T03:51:25;96969.56;;;13.67;45.61
40838;BME280;29632;49.168;9.848;2023-05-02T03:53:51;96968.25;;;13.71;45.57
40838;BME280;29632;49.168;9.848;2023-05-02T03:56:17;96972.22;;;13.75;45.51
40838;BME280;29632;49.168;9.848;2023-05-02T03:58:47;96970.91;;;13.79;45.70
40838;BME280;29632;49.168;9.848;2023-05-02T04:01:13;96973.06;;;13.84;45.35
40838;BME280;29632;49.168;9.848;2023-05-02T04:03:40;96966.19;;;13.83;45.68
40838;BME280;29632;49.168;9.848;2023-05-02T04:06:05;96984.34;;;13.85;45.90
40838;BME280;29632;49.168;9.848;2023-05-02T04:08:31;96982.38;;;13.87;45.45
40838;BME280;29632;49.168;9.848;2023-05-02T04:10:57;96983.88;;;13.89;45.80
40838;BME280;29632;49.168;9.848;2023-05-02T04:13:23;96986.16;;;13.92;45.88
40838;BME280;29632;49.168;9.848;2023-05-02T04:15:48;96985.03;;;13.95;45.45
40838;BME280;29632;49.168;9.848;2023-05-02T04:18:14;96989.13;;;13.97;45.52
40838;BME280;29632;49.168;9.848;2023-05-02T04:20:42;96994.84;;;14.01;45.72
40838;BME280;29632;49.168;9.848;2023-05-02T04:23:08;96999.13;;;14.02;45.37
40838;BME280;29632;49.168;9.848;2023-05-02T04:25:33;96998.66;;;14.07;45.60
40838;BME280;29632;49.168;9.848;2023-05-02T04:27:59;97001.28;;;14.07;45.77
40838;BME280;29632;49.168;9.848;2023-05-02T04:30:25;97004.53;;;14.09;45.77
40838;BME280;29632;49.168;9.848;2023-05-02T04:32:51;97003.38;;;14.11;45.86
40838;BME280;29632;49.168;9.848;2023-05-02T04:35:16;97002.25;;;14.14;45.82
40838;BME280;29632;49.168;9.848;2023-05-02T04:37:42;97003.72;;;14.16;45.76
40838;BME280;29632;49.168;9.848;2023-05-02T04:40:08;96999.97;;;14.19;45.61
40838;BME280;29632;49.168;9.848;2023-05-02T04:42:34;97004.06;;;14.22;45.82
40838;BME280;29632;49.168;9.848;2023-05-02T04:44:59;97008.19;;;14.24;45.59
40838;BME280;29632;49.168;9.848;2023-05-02T04:47:25;97011.28;;;14.28;45.75
40838;BME280;29632;49.168;9.848;2023-05-02T04:49:51;97008.69;;;14.28;45.49
40838;BME280;29632;49.168;9.848;2023-05-02T04:52:16;97015.53;;;14.29;45.52
40838;BME280;29632;49.168;9.848;2023-05-02T04:54:43;97011.94;;;14.30;45.90
40838;BME280;29632;49.168;9.848;2023-05-02T04:57:08;97017.69;;;14.33;45.59
40838;BME280;29632;49.168;9.848;2023-05-02T04:59:35;97015.72;;;14.35;45.71
40838;BME280;29632;49.168;9.848;2023-05-02T05:02:01;97020.78;;;14.37;45.55
40838;BME280;29632;49.168;9.848;2023-05-02T05:04:27;97014.59;;;14.38;45.93
40838;BME280;29632;49.168;9.848;2023-05-02T05:06:53;97021.28;;;14.41;45.78
40838;BME280;29632;49.168;9.848;2023-05-02T05:09:19;97031.63;;;14.42;45.85
40838;BME280;29632;49.168;9.848;2023-05-02T05:11:44;97030.47;;;14.45;46.14
40838;BME280;29632;49.168;9.848;2023-05-02T05:14:10;97036.19;;;14.48;45.95
40838;BME280;29632;49.168;9.848;2023-05-02T05:16:36;97037.69;;;14.51;45.83
40838;BME280;29632;49.168;9.848;2023-05-02T05:19:02;97042.59;;;14.54;45.95
40838;BME280;29632;49.168;9.848;2023-05-02T05:21:28;97044.88;;;14.57;45.85
40838;BME280;29632;49.168;9.848;2023-05-02T05:23:54;97052.47;;;14.60;45.93
40838;BME280;29632;49.168;9.848;2023-05-02T05:26:19;97049.69;;;14.62;45.99
40838;BME280;29632;49.168;9.848;2023-05-02T05:28:45;97048.56;;;14.64;46.04
40838;BME280;29632;49.168;9.848;2023-05-02T05:31:12;97060.34;;;14.68;45.88
40838;BME280;29632;49.168;9.848;2023-05-02T05:33:40;97064.78;;;14.68;46.21
40838;BME280;29632;49.168;9.848;2023-05-02T05:36:11;97068.19;;;14.68;46.28
40838;BME280;29632;49.168;9.848;2023-05-02T05:38:37;97082.28;;;14.67;45.83
40838;BME280;29632;49.168;9.848;2023-05-02T05:41:03;97079.00;;;14.65;46.20
40838;BME280;29632;49.168;9.848;2023-05-02T05:43:35;97086.06;;;14.65;46.29
40838;BME280;29632;49.168;9.848;2023-05-02T05:46:01;97087.03;;;14.64;46.20
40838;BME280;29632;49.168;9.848;2023-05-02T05:48:27;97086.22;;;14.63;46.66
40838;BME280;29632;49.168;9.848;2023-05-02T05:50:53;97088.53;;;14.66;46.72
40838;BME280;29632;49.168;9.848;2023-05-02T05:53:19;97097.84;;;14.69;46.62
40838;BME280;29632;49.168;9.848;2023-05-02T05:55:45;97107.84;;;14.73;46.67
40838;BME280;29632;49.168;9.848;2023-05-02T05:58:10;97101.47;;;14.76;46.73
40838;BME280;29632;49.168;9.848;2023-05-02T06:00:37;97102.94;;;14.79;46.30
40838;BME280;29632;49.168;9.848;2023-05-02T06:03:03;97097.38;;;14.82;46.79
40838;BME280;29632;49.168;9.848;2023-05-02T06:05:29;97100.50;;;14.85;46.98
40838;BME280;29632;49.168;9.848;2023-05-02T06:07:56;97099.50;;;14.86;46.54
40838;BME280;29632;49.168;9.848;2023-05-02T06:10:22;97112.28;;;14.89;46.57
40838;BME280;29632;49.168;9.848;2023-05-02T06:12:48;97113.59;;;14.94;46.69
40838;BME280;29632;49.168;9.848;2023-05-02T06:15:13;97113.13;;;14.98;46.83
40838;BME280;29632;49.168;9.848;2023-05-02T06:17:39;97122.28;;;15.02;46.37
40838;BME280;29632;49.168;9.848;2023-05-02T06:20:05;97122.94;;;15.04;46.78
40838;BME280;29632;49.168;9.848;2023-05-02T06:22:31;97116.72;;;15.05;46.83
40838;BME280;29632;49.168;9.848;2023-05-02T06:24:57;97126.91;;;15.08;46.51
40838;BME280;29632;49.168;9.848;2023-05-02T06:27:22;97130.34;;;15.09;46.86
40838;BME280;29632;49.168;9.848;2023-05-02T06:29:52;97132.47;;;15.14;46.73
40838;BME280;29632;49.168;9.848;2023-05-02T06:32:17;97138.22;;;15.17;46.89
40838;BME280;29632;49.168;9.848;2023-05-02T06:34:43;97138.53;;;15.22;46.58
40838;BME280;29632;49.168;9.848;2023-05-02T06:37:09;97142.63;;;15.25;46.64
40838;BME280;29632;49.168;9.848;2023-05-02T06:39:35;97147.56;;;15.28;46.71
40838;BME280;29632;49.168;9.848;2023-05-02T06:42:01;97145.25;;;15.33;46.79
40838;BME280;29632;49.168;9.848;2023-05-02T06:44:26;97152.97;;;15.35;46.79
40838;BME280;29632;49.168;9.848;2023-05-02T06:46:52;97153.44;;;15.38;46.75
40838;BME280;29632;49.168;9.848;2023-05-02T06:49:18;97158.22;;;15.43;46.64
40838;BME280;29632;49.168;9.848;2023-05-02T06:51:43;97155.06;;;15.47;46.74
40838;BME280;29632;49.168;9.848;2023-05-02T06:54:09;97149.34;;;15.52;46.80
40838;BME280;29632;49.168;9.848;2023-05-02T06:56:35;97165.75;;;15.54;46.92
40838;BME280;29632;49.168;9.848;2023-05-02T06:59:01;97159.53;;;15.55;46.75
40838;BME280;29632;49.168;9.848;2023-05-02T07:01:27;97176.06;;;15.56;46.88
40838;BME280;29632;49.168;9.848;2023-05-02T07:03:52;97176.06;;;15.56;46.85
40838;BME280;29632;49.168;9.848;2023-05-02T07:06:19;97186.25;;;15.59;47.08
40838;BME280;29632;49.168;9.848;2023-05-02T07:08:45;97187.06;;;15.59;47.12
40838;BME280;29632;49.168;9.848;2023-05-02T07:11:12;97185.25;;;15.60;47.04
40838;BME280;29632;49.168;9.848;2023-05-02T07:13:38;97189.38;;;15.62;46.99
40838;BME280;29632;49.168;9.848;2023-05-02T07:16:04;97188.19;;;15.65;46.90
40838;BME280;29632;49.168;9.848;2023-05-02T07:18:29;97183.44;;;15.68;47.09
40838;BME280;29632;49.168;9.848;2023-05-02T07:20:55;97190.19;;;15.71;47.12
40838;BME280;29632;49.168;9.848;2023-05-02T07:23:21;97183.63;;;15.75;47.23
40838;BME280;29632;49.168;9.848;2023-05-02T07:25:47;97189.38;;;15.79;46.89
40838;BME280;29632;49.168;9.848;2023-05-02T07:28:12;97194.28;;;15.82;47.14
40838;BME280;29632;49.168;9.848;2023-05-02T07:30:38;97195.75;;;15.84;47.19
40838;BME280;29632;49.168;9.848;2023-05-02T07:33:03;97200.69;;;15.88;47.08
40838;BME280;29632;49.168;9.848;2023-05-02T07:35:29;97201.50;;;15.88;47.17
40838;BME280;29632;49.168;9.848;2023-05-02T07:37:55;97202.66;;;15.94;47.23
40838;BME280;29632;49.168;9.848;2023-05-02T07:40:21;97202.59;;;16.02;47.03
40838;BME280;29632;49.168;9.848;2023-05-02T07:42:47;97206.88;;;16.11;47.08
40838;BME280;29632;49.168;9.848;2023-05-02T07:45:13;97204.22;;;16.19;46.95
40838;BME280;29632;49.168;9.848;2023-05-02T07:47:38;97200.75;;;16.27;46.89
40838;BME280;29632;49.168;9.848;2023-05-02T07:50:04;97197.75;;;16.30;46.94
40838;BME280;29632;49.168;9.848;2023-05-02T07:52:31;97211.06;;;16.37;46.86
40838;BME280;29632;49.168;9.848;2023-05-02T07:54:57;97213.00;;;16.43;46.84
40838;BME280;29632;49.168;9.848;2023-05-02T07:57:22;97208.53;;;16.52;46.86
40838;BME280;29632;49.168;9.848;2023-05-02T07:59:48;97211.13;;;16.60;46.81
40838;BME280;29632;49.168;9.848;2023-05-02T08:02:14;97208.63;;;16.67;46.82
40838;BME280;29632;49.168;9.848;2023-05-02T08:04:41;97203.84;;;16.70;46.62
40838;BME280;29632;49.168;9.848;2023-05-02T08:07:07;97209.41;;;16.75;46.78
40838;BME280;29632;49.168;9.848;2023-05-02T08:09:33;97217.59;;;16.80;46.57
40838;BME280;29632;49.168;9.848;2023-05-02T08:11:59;97214.97;;;16.89;46.74
40838;BME280;29632;49.168;9.848;2023-05-02T08:14:26;97212.28;;;16.97;46.62
40838;BME280;29632;49.168;9.848;2023-05-02T08:16:52;97220.78;;;17.07;46.62
40838;BME280;29632;49.168;9.848;2023-05-02T08:19:18;97223.97;;;17.17;46.45
40838;BME280;29632;49.168;9.848;2023-05-02T08:21:43;97220.16;;;17.28;46.58
40838;BME280;29632;49.168;9.848;2023-05-02T08:24:09;97220.91;;;17.37;46.49
40838;BME280;29632;49.168;9.848;2023-05-02T08:26:35;97223.63;;;17.44;46.30
40838;BME280;29632;49.168;9.848;2023-05-02T08:29:00;97221.75;;;17.52;46.38
40838;BME280;29632;49.168;9.848;2023-05-02T08:31:27;97221.06;;;17.59;46.33
40838;BME280;29632;49.168;9.848;2023-05-02T08:33:53;97227.78;;;17.61;46.36
40838;BME280;29632;49.168;9.848;2023-05-02T08:36:18;97237.97;;;17.64;46.39
40838;BME280;29632;49.168;9.848;2023-05-02T08:38:45;97234.63;;;17.70;46.47
40838;BME280;29632;49.168;9.848;2023-05-02T08:41:14;97238.00;;;17.79;46.60
40838;BME280;29632;49.168;9.848;2023-05-02T08:43:42;97237.44;;;17.84;46.34
40838;BME280;29632;49.168;9.848;2023-05-02T08:46:09;97230.88;;;17.88;46.43
40838;BME280;29632;49.168;9.848;2023-05-02T08:48:37;97234.78;;;17.92;46.36
40838;BME280;29632;49.168;9.848;2023-05-02T08:51:03;97237.88;;;17.96;46.38
40838;BME280;29632;49.168;9.848;2023-05-02T08:53:36;97242.28;;;18.03;46.54
40838;BME280;29632;49.168;9.848;2023-05-02T08:56:02;97236.09;;;18.11;46.48
40838;BME280;29632;49.168;9.848;2023-05-02T08:58:28;97250.81;;;18.20;46.31
40838;BME280;29632;49.168;9.848;2023-05-02T09:01:01;97253.09;;;18.23;46.32
40838;BME280;29632;49.168;9.848;2023-05-02T09:03:31;97254.34;;;18.27;46.33
40838;BME280;29632;49.168;9.848;2023-05-02T09:06:15;97263.00;;;18.36;46.45
40838;BME280;29632;49.168;9.848;2023-05-02T09:08:42;97256.66;;;18.45;46.35
40838;BME280;29632;49.168;9.848;2023-05-02T09:11:09;97263.63;;;18.53;46.14
40838;BME280;29632;49.168;9.848;2023-05-02T09:13:38;97264.19;;;18.63;46.18
40838;BME280;29632;49.168;9.848;2023-05-02T09:18:41;97257.06;;;18.79;46.07
40838;BME280;29632;49.168;9.848;2023-05-02T09:21:12;97260.66;;;18.86;46.27
40838;BME280;29632;49.168;9.848;2023-05-02T09:23:46;97258.91;;;18.93;46.16
40838;BME280;29632;49.168;9.848;2023-05-02T09:26:26;97260.81;;;18.99;46.09
40838;BME280;29632;49.168;9.848;2023-05-02T09:28:55;97258.41;;;19.04;46.06
40838;BME280;29632;49.168;9.848;2023-05-02T09:31:30;97253.81;;;19.13;45.79
40838;BME280;29632;49.168;9.848;2023-05-02T09:34:14;97251.72;;;19.23;46.06
40838;BME280;29632;49.168;9.848;2023-05-02T09:36:50;97257.94;;;19.37;45.88
40838;BME280;29632;49.168;9.848;2023-05-02T09:39:22;97254.19;;;19.47;45.82
40838;BME280;29632;49.168;9.848;2023-05-02T09:41:48;97256.13;;;19.59;45.80
40838;BME280;29632;49.168;9.848;2023-05-02T09:44:16;97259.56;;;19.75;45.57
40838;BME280;29632;49.168;9.848;2023-05-02T09:46:46;97255.56;;;19.86;45.62
40838;BME280;29632;49.168;9.848;2023-05-02T09:49:12;97265.59;;;19.90;45.63
40838;BME280;29632;49.168;9.848;2023-05-02T09:51:46;97269.03;;;19.91;45.62
40838;BME280;29632;49.168;9.848;2023-05-02T09:54:34;97265.59;;;19.90;45.57
40838;BME280;29632;49.168;9.848;2023-05-02T09:57:00;97272.47;;;19.91;45.58
40838;BME280;29632;49.168;9.848;2023-05-02T09:59:26;97266.25;;;19.99;45.63
40838;BME280;29632;49.168;9.848;2023-05-02T10:01:56;97263.44;;;20.07;45.55
40838;BME280;29632;49.168;9.848;2023-05-02T10:04:22;97261.66;;;20.14;45.43
40838;BME280;29632;49.168;9.848;2023-05-02T10:06:49;97265.16;;;20.22;45.41
40838;BME280;29632;49.168;9.848;2023-05-02T10:09:15;97269.50;;;20.29;45.35
40838;BME280;29632;49.168;9.848;2023-05-02T10:11:43;97260.78;;;20.35;45.43
40838;BME280;29632;49.168;9.848;2023-05-02T10:14:10;97262.28;;;20.45;45.30
40838;BME280;29632;49.168;9.848;2023-05-02T10:17:17;97268.66;;;20.57;45.28
40838;BME280;29632;49.168;9.848;2023-05-02T10:20:04;97261.22;;;20.67;45.29
40838;BME280;29632;49.168;9.848;2023-05-02T10:22:33;97265.13;;;20.78;45.22
40838;BME280;29632;49.168;9.848;2023-05-02T10:24:59;97258.44;;;20.89;45.03
40838;BME280;29632;49.168;9.848;2023-05-02T10:27:28;97258.69;;;21.01;44.96
40838;BME280;29632;49.168;9.848;2023-05-02T10:29:56;97261.38;;;21.14;44.88
40838;BME280;29632;49.168;9.848;2023-05-02T10:32:22;97253.66;;;21.26;44.66
40838;BME280;29632;49.168;9.848;2023-05-02T10:34:49;97264.06;;;21.27;44.72
40838;BME280;29632;49.168;9.848;2023-05-02T10:37:16;97262.66;;;21.25;44.77
40838;BME280;29632;49.168;9.848;2023-05-02T10:39:42;97250.22;;;21.25;44.87
40838;BME280;29632;49.168;9.848;2023-05-02T10:42:08;97258.38;;;21.30;44.85
40838;BME280;29632;49.168;9.848;2023-05-02T10:44:36;97254.28;;;21.35;44.94
40838;BME280;29632;49.168;9.848;2023-05-02T10:47:24;97258.59;;;21.36;44.82
40838;BME280;29632;49.168;9.848;2023-05-02T10:49:58;97259.81;;;21.40;44.98
40838;BME280;29632;49.168;9.848;2023-05-02T10:52:36;97258.59;;;21.42;44.91
40838;BME280;29632;49.168;9.848;2023-05-02T10:55:19;97244.78;;;21.47;44.87
40838;BME280;29632;49.168;9.848;2023-05-02T11:00:31;97231.53;;;21.54;44.77
40838;BME280;29632;49.168;9.848;2023-05-02T11:02:58;97240.69;;;21.58;44.81
40838;BME280;29632;49.168;9.848;2023-05-02T11:05:25;97233.78;;;21.63;44.83
40838;BME280;29632;49.168;9.848;2023-05-02T11:10:42;97231.75;;;21.85;44.49
40838;BME280;29632;49.168;9.848;2023-05-02T11:13:10;97231.75;;;21.99;44.19
40838;BME280;29632;49.168;9.848;2023-05-02T11:18:11;97230.28;;;22.10;44.13
40838;BME280;29632;49.168;9.848;2023-05-02T11:20:41;97223.78;;;22.12;44.12
40838;BME280;29632;49.168;9.848;2023-05-02T11:25:41;97223.13;;;22.17;43.89
40838;BME280;29632;49.168;9.848;2023-05-02T11:31:06;97231.09;;;22.23;44.06
40838;BME280;29632;49.168;9.848;2023-05-02T11:33:32;97232.94;;;22.23;43.98
40838;BME280;29632;49.168;9.848;2023-05-02T11:35:58;97239.47;;;22.27;43.94
40838;BME280;29632;49.168;9.848;2023-05-02T11:38:25;97238.63;;;22.27;43.98
40838;BME280;29632;49.168;9.848;2023-05-02T11:40:55;97242.94;;;22.21;43.97
40838;BME280;29632;49.168;9.848;2023-05-02T11:43:22;97240.50;;;22.19;44.17
40838;BME280;29632;49.168;9.848;2023-05-02T11:45:49;97251.91;;;22.20;43.92
40838;BME280;29632;49.168;9.848;2023-05-02T11:48:17;97255.16;;;22.22;44.06
40838;BME280;29632;49.168;9.848;2023-05-02T11:50:57;97255.78;;;22.24;43.80
40838;BME280;29632;49.168;9.848;2023-05-02T11:53:27;97255.97;;;22.22;43.98
40838;BME280;29632;49.168;9.848;2023-05-02T11:55:55;97261.06;;;22.17;44.12
40838;BME280;29632;49.168;9.848;2023-05-02T11:58:22;97260.69;;;22.14;44.20
40838;BME280;29632;49.168;9.848;2023-05-02T12:00:52;97264.78;;;22.10;43.99
40838;BME280;29632;49.168;9.848;2023-05-02T12:03:28;97261.72;;;22.06;44.21
40838;BME280;29632;49.168;9.848;2023-05-02T12:05:54;97266.41;;;22.04;44.12
40838;BME280;29632;49.168;9.848;2023-05-02T12:08:25;97269.47;;;22.01;44.23
40838;BME280;29632;49.168;9.848;2023-05-02T12:10:55;97269.88;;;21.98;44.21
40838;BME280;29632;49.168;9.848;2023-05-02T12:13:23;97270.50;;;21.93;44.19
40838;BME280;29632;49.168;9.848;2023-05-02T12:15:49;97270.91;;;21.83;44.32
40838;BME280;29632;49.168;9.848;2023-05-02T12:18:15;97271.50;;;21.79;44.35
40838;BME280;29632;49.168;9.848;2023-05-02T12:20:42;97272.94;;;21.75;44.32
40838;BME280;29632;49.168;9.848;2023-05-02T12:23:08;97271.91;;;21.69;44.38
40838;BME280;29632;49.168;9.848;2023-05-02T12:25:40;97269.25;;;21.69;44.50
40838;BME280;29632;49.168;9.848;2023-05-02T12:28:06;97279.25;;;21.67;44.44
40838;BME280;29632;49.168;9.848;2023-05-02T12:30:33;97276.19;;;21.63;44.39
40838;BME280;29632;49.168;9.848;2023-05-02T12:33:00;97274.94;;;21.59;44.42
40838;BME280;29632;49.168;9.848;2023-05-02T12:35:27;97278.84;;;21.57;44.60
40838;BME280;29632;49.168;9.848;2023-05-02T12:37:53;97279.44;;;21.52;44.79
40838;BME280;29632;49.168;9.848;2023-05-02T12:40:20;97275.16;;;21.51;44.66
40838;BME280;29632;49.168;9.848;2023-05-02T12:43:05;97282.28;;;21.50;44.67
40838;BME280;29632;49.168;9.848;2023-05-02T12:45:34;97284.53;;;21.54;44.77
40838;BME280;29632;49.168;9.848;2023-05-02T12:48:01;97288.81;;;21.55;44.71
40838;BME280;29632;49.168;9.848;2023-05-02T12:50:39;97284.94;;;21.57;44.54
40838;BME280;29632;49.168;9.848;2023-05-02T12:53:05;97291.47;;;21.61;44.63
40838;BME280;29632;49.168;9.848;2023-05-02T12:55:31;97282.09;;;21.65;44.71
40838;BME280;29632;49.168;9.848;2023-05-02T12:58:01;97290.88;;;21.66;44.74
40838;BME280;29632;49.168;9.848;2023-05-02T13:00:28;97291.47;;;21.68;44.45
40838;BME280;29632;49.168;9.848;2023-05-02T13:02:54;97292.50;;;21.74;44.57
40838;BME280;29632;49.168;9.848;2023-05-02T13:05:19;97284.53;;;21.74;44.41
40838;BME280;29632;49.168;9.848;2023-05-02T13:07:45;97286.38;;;21.73;44.43
40838;BME280;29632;49.168;9.848;2023-05-02T13:10:11;97287.81;;;21.69;44.54
40838;BME280;29632;49.168;9.848;2023-05-02T13:12:38;97288.81;;;21.68;44.56
40838;BME280;29632;49.168;9.848;2023-05-02T13:15:04;97293.91;;;21.63;44.65
40838;BME280;29632;49.168;9.848;2023-05-02T13:17:31;97288.19;;;21.59;44.67
40838;BME280;29632;49.168;9.848;2023-05-02T13:19:57;97289.03;;;21.53;44.71
40838;BME280;29632;49.168;9.848;2023-05-02T13:22:23;97292.47;;;21.54;44.77
40838;BME280;29632;49.168;9.848;2023-05-02T13:24:50;97289.22;;;21.52;44.74
40838;BME280;29632;49.168;9.848;2023-05-02T13:27:16;97293.06;;;21.49;44.72
40838;BME280;29632;49.168;9.848;2023-05-02T13:29:46;97282.91;;;21.46;44.79
40838;BME280;29632;49.168;9.848;2023-05-02T13:32:13;97285.72;;;21.44;44.73